Glasgow, DE

5:58 PM EDT on August 21, 2014 (GMT -0400)
La Grange | Change Station
CLOSE
Current Station
Personal Weather Station
Location: Glasgow, DE
Elevation: 84 ft
Nearby Weather Stations

Elev 84 ft 39.61 °N, 75.76 °W | Updated 5 minutes ago

Clear
Clear
78.4 °F
Feels Like 81 °F
N
4.0
Wind Variable Wind from SE
Gusts 7.0 mph

Today
High -- | Low -- °F
--% Chance of Precip.
Yesterday
High -- | Low -- °F
Precip. -- in
6:20 AM 7:50 PM
Waning Crescent, 12% visible
Pressure 30.01 in
Visibility 10.0 miles
Clouds Clear
Heat Index 81 °F
Dew Point 73 °F
Humidity 82%
Rainfall 0.00 in
Snow Depth Not available.
UV 2 out of 12
Pollen 8.60 out of 12
Air Quality Not available.
Flu Activity Not available.
METAR KILG 212151Z 17012KT 10SM CLR 26/22 A3000 RMK AO2 LTG DSNT W SLP160 T02560217

More Conditions Fewer Conditions

Pressure 30.01 in
Visibility 10.0 miles
Clouds Clear
Heat Index 81 °F
Dew Point 73 °F
Humidity 82%
Rainfall 0.00 in
Snow Depth Not available.
UV 2 out of 12
Pollen 8.60 out of 12
Air Quality Not available.
Flu Activity Not available.
METAR KILG 212151Z 17012KT 10SM CLR 26/22 A3000 RMK AO2 LTG DSNT W SLP160 T02560217

More Conditions Fewer Conditions

10-Day Weather Forecast

Almanac

Astronomy

Aug. 21, 2014 Rise Set
Actual Time 6:20 AM EDT 7:50 PM EDT
Civil Twilight 5:52 AM EDT 8:18 PM EDT
Nautical Twilight 5:18 AM EDT 8:52 PM EDT
Astronomical Twilight 4:42 AM EDT 9:28 PM EDT
Moon 2:49 AM EDT 5:17 PM EDT
Length of Visible Light 14h 26m
Length of Day
13h 29m
Tomorrow will be 2m 23s shorter.
Waning Crescent, 12% of the Moon is Illuminated
Today
Waning Crescent
Aug 25
New
Sep 2
First Quarter
Sep 8
Full
Sep 15
Last Quarter

Today's Extremes

State Highs State Lows

Community

WunderPhotos

Upload Photos

1,746,021 photos uploaded!

WunderBlogs® & News

Nearby

Snow Depth

Station Depth Elevation
No new snow has been reported.

Earthquake Activity

City Distance Mag. Time & Date
No recent earthquake activity has been reported nearby.
Minimum magnitude displayed is 2.5.

Coastal Water Temperatures

Place Temperature
Cape May, NJ 82.0 °F
Reedy Point, DE 79.0 °F
Delaware City, DE 79.0 °F
Marcus Hook, PA 79.0 °F

Nearby Weather Stations